Time;durP1;ratioP1;P1;durP2;ratioP2;P2;SDS_P1;SDS_P2;PMS_P1;PMS_P2;Temp;Humidity;BMP_temperature;BMP_pressure;BME280_temperature;BME280_humidity;BME280_pressure;Samples;Min_cycle;Max_cycle;Signal;HPM_P1;HPM_P2
2022/03/17 00:00:09;;;;;;;30.10;20.70;;;9.00;96.40;;;;;;4950476;28;20090;-88
2022/03/17 00:02:36;;;;;;;31.73;19.85;;;9.00;96.60;;;;;;4982000;28;20030;-87
2022/03/17 00:05:03;;;;;;;29.27;19.60;;;9.00;96.30;;;;;;4986539;28;20154;-87
2022/03/17 00:07:30;;;;;;;30.60;20.27;;;9.00;96.20;;;;;;4958528;28;20037;-87
2022/03/17 00:09:56;;;;;;;30.92;20.90;;;9.00;96.20;;;;;;4958439;28;20053;-88
2022/03/17 00:12:21;;;;;;;33.08;20.65;;;9.00;96.20;;;;;;4963958;28;20078;-86
2022/03/17 00:14:47;;;;;;;33.08;20.50;;;9.00;96.20;;;;;;4976333;28;20023;-87
2022/03/17 00:17:13;;;;;;;31.73;20.38;;;9.00;96.20;;;;;;4959571;28;20027;-85
2022/03/17 00:19:39;;;;;;;31.52;20.42;;;9.00;96.10;;;;;;4976850;28;20524;-87
2022/03/17 00:22:08;;;;;;;35.65;20.63;;;9.00;96.10;;;;;;4958649;28;20077;-85
2022/03/17 00:24:37;;;;;;;35.85;21.48;;;9.00;96.10;;;;;;4967468;28;20026;-86
2022/03/17 00:27:05;;;;;;;30.77;20.60;;;9.00;96.10;;;;;;4987994;28;20537;-86
2022/03/17 00:29:33;;;;;;;33.25;21.58;;;9.00;96.00;;;;;;4963214;28;20127;-88
2022/03/17 00:31:58;;;;;;;32.30;21.05;;;8.90;95.90;;;;;;4975819;28;20154;-88
2022/03/17 00:34:24;;;;;;;33.10;20.58;;;9.00;95.90;;;;;;4959375;28;20074;-87
2022/03/17 00:36:50;;;;;;;32.80;21.50;;;8.90;95.80;;;;;;4959568;28;20034;-87
2022/03/17 00:39:16;;;;;;;30.58;19.98;;;8.90;95.80;;;;;;4959058;28;20033;-87
2022/03/17 00:41:45;;;;;;;30.92;21.17;;;8.90;95.80;;;;;;4958797;28;20027;-87
2022/03/17 00:44:11;;;;;;;32.67;20.27;;;8.90;95.80;;;;;;4967837;28;20019;-85
2022/03/17 00:46:37;;;;;;;33.67;20.70;;;8.90;95.70;;;;;;4981422;28;20022;-85
2022/03/17 00:49:03;;;;;;;33.15;20.42;;;8.90;95.80;;;;;;4981718;28;20034;-85
2022/03/17 00:51:29;;;;;;;33.72;22.00;;;8.80;95.70;;;;;;4979548;28;20046;-85
2022/03/17 00:53:55;;;;;;;35.25;21.63;;;8.80;95.70;;;;;;4983931;28;20143;-88
2022/03/17 00:56:21;;;;;;;31.60;20.73;;;8.80;95.70;;;;;;4959927;28;20093;-87
2022/03/17 00:58:48;;;;;;;35.28;22.05;;;8.80;95.60;;;;;;4962571;28;20033;-87
2022/03/17 01:01:15;;;;;;;32.60;21.95;;;8.70;95.60;;;;;;4976405;28;20027;-87
2022/03/17 01:03:42;;;;;;;31.25;20.02;;;8.80;95.60;;;;;;4964767;28;20161;-86
2022/03/17 01:06:10;;;;;;;35.35;22.17;;;8.80;95.60;;;;;;4977274;28;20023;-86
2022/03/17 01:08:37;;;;;;;33.00;20.80;;;8.70;95.60;;;;;;4960375;28;20126;-87
2022/03/17 01:11:04;;;;;;;32.40;20.85;;;8.80;95.60;;;;;;4959649;28;20075;-87
2022/03/17 01:13:30;;;;;;;33.00;20.98;;;8.70;95.50;;;;;;4969014;28;20037;-87
2022/03/17 01:15:56;;;;;;;33.00;20.98;;;8.70;95.50;;;;;;4961237;28;20059;-86
2022/03/17 01:18:21;;;;;;;33.70;20.75;;;8.70;95.50;;;;;;4958953;28;20023;-86
2022/03/17 01:20:48;;;;;;;31.98;20.33;;;8.70;95.50;;;;;;4976355;28;20065;-87
2022/03/17 01:23:14;;;;;;;30.33;20.35;;;8.70;95.50;;;;;;4959035;28;20030;-87
2022/03/17 01:25:39;;;;;;;32.30;20.08;;;8.70;95.40;;;;;;4975854;28;20023;-87
2022/03/17 01:28:05;;;;;;;30.40;19.83;;;8.60;95.30;;;;;;4969088;28;20082;-87
2022/03/17 01:30:31;;;;;;;28.05;17.40;;;8.60;95.30;;;;;;4965128;28;20093;-87
2022/03/17 01:32:56;;;;;;;30.90;19.92;;;8.60;95.30;;;;;;4972347;28;20038;-86
2022/03/17 01:35:22;;;;;;;29.00;19.20;;;8.60;95.30;;;;;;4972052;28;20033;-87
2022/03/17 01:37:47;;;;;;;29.55;19.73;;;8.70;95.30;;;;;;4966429;28;20031;-86
2022/03/17 01:40:13;;;;;;;33.63;19.08;;;8.60;95.20;;;;;;4978581;28;20023;-86
2022/03/17 01:42:39;;;;;;;30.02;19.60;;;8.60;95.20;;;;;;4970625;28;20070;-85
2022/03/17 01:45:06;;;;;;;28.27;18.98;;;8.60;95.20;;;;;;4980560;28;20034;-86
2022/03/17 01:47:33;;;;;;;30.67;18.73;;;8.60;95.20;;;;;;4959694;29;20050;-87
2022/03/17 01:50:00;;;;;;;29.98;20.10;;;8.70;95.10;;;;;;4957641;28;20052;-86
2022/03/17 01:52:26;;;;;;;29.85;19.05;;;8.60;95.10;;;;;;4979056;28;20078;-86
2022/03/17 01:54:53;;;;;;;28.90;18.08;;;8.70;95.10;;;;;;4965903;28;20026;-88
2022/03/17 01:57:20;;;;;;;25.65;17.83;;;8.60;95.00;;;;;;4979442;28;20027;-87
2022/03/17 01:59:48;;;;;;;28.67;18.42;;;8.60;95.00;;;;;;4961421;28;20035;-85
2022/03/17 02:02:14;;;;;;;28.65;18.77;;;8.60;94.90;;;;;;4968230;28;20031;-87
2022/03/17 02:04:43;;;;;;;28.90;18.80;;;8.70;94.90;;;;;;4968726;28;20031;-86
2022/03/17 02:07:11;;;;;;;27.75;18.27;;;8.60;94.90;;;;;;4968937;28;20027;-87
2022/03/17 02:09:38;;;;;;;31.92;19.27;;;8.60;94.80;;;;;;4965662;28;20493;-86
2022/03/17 02:14:51;;;;;;;26.90;17.95;;;8.60;94.70;;;;;;4986545;28;20042;-87
2022/03/17 02:17:17;;;;;;;27.40;17.75;;;8.60;94.70;;;;;;4974450;28;20101;-87
2022/03/17 02:19:43;;;;;;;28.17;19.00;;;8.60;94.70;;;;;;4983888;28;20023;-87
2022/03/17 02:22:12;;;;;;;28.42;18.13;;;8.60;94.70;;;;;;4967979;28;20457;-87
2022/03/17 02:27:28;;;;;;;30.33;18.05;;;8.60;94.60;;;;;;4979029;28;20084;-87
2022/03/17 02:29:54;;;;;;;25.95;18.13;;;8.50;94.50;;;;;;4968004;28;20119;-87
2022/03/17 02:32:20;;;;;;;29.70;18.23;;;8.50;94.50;;;;;;4956666;28;20030;-87
2022/03/17 02:34:46;;;;;;;28.40;18.02;;;8.50;94.50;;;;;;4967895;28;20398;-86
2022/03/17 02:37:15;;;;;;;27.17;17.90;;;8.50;94.60;;;;;;4966554;28;20019;-86
2022/03/17 02:39:42;;;;;;;28.08;17.90;;;8.50;94.50;;;;;;4968018;28;20035;-87
2022/03/17 02:42:10;;;;;;;34.17;19.05;;;8.50;94.50;;;;;;4968585;28;20030;-87
2022/03/17 02:44:36;;;;;;;27.83;17.67;;;8.50;94.40;;;;;;4966786;28;20091;-87
2022/03/17 02:47:03;;;;;;;30.00;18.80;;;8.50;94.70;;;;;;4976254;28;20023;-87
2022/03/17 02:49:28;;;;;;;28.30;17.83;;;8.50;94.40;;;;;;4976506;28;20031;-86
2022/03/17 02:51:54;;;;;;;27.30;17.58;;;8.50;94.40;;;;;;4972744;28;20077;-85
2022/03/17 02:54:19;;;;;;;27.23;18.02;;;8.50;94.40;;;;;;4968387;28;20031;-86
2022/03/17 02:56:45;;;;;;;27.67;18.20;;;8.50;94.40;;;;;;4974104;28;20018;-87
2022/03/17 02:59:11;;;;;;;28.42;18.95;;;8.50;94.40;;;;;;4967583;28;20041;-86
2022/03/17 03:01:36;;;;;;;29.35;18.23;;;8.50;94.30;;;;;;4967663;28;20034;-87
2022/03/17 03:04:02;;;;;;;31.30;18.60;;;8.50;94.30;;;;;;4974753;28;20030;-87
2022/03/17 03:06:27;;;;;;;27.00;18.05;;;8.50;94.30;;;;;;4968175;28;20050;-87
2022/03/17 03:08:53;;;;;;;31.13;18.05;;;8.50;94.30;;;;;;4964312;29;20095;-87
2022/03/17 03:11:18;;;;;;;28.05;18.45;;;8.50;94.30;;;;;;4971273;28;20019;-86
2022/03/17 03:13:44;;;;;;;26.77;18.23;;;8.50;94.30;;;;;;4965034;28;20022;-87
2022/03/17 03:16:11;;;;;;;29.95;18.52;;;8.50;94.30;;;;;;4966295;28;20090;-87
2022/03/17 03:18:37;;;;;;;26.60;18.58;;;8.50;94.30;;;;;;4970036;28;20094;-88
2022/03/17 03:21:02;;;;;;;27.38;18.67;;;8.40;94.30;;;;;;4967698;28;20051;-87
2022/03/17 03:23:28;;;;;;;27.25;17.92;;;8.40;94.30;;;;;;4965739;28;20023;-87
2022/03/17 03:25:54;;;;;;;29.70;17.88;;;8.40;94.30;;;;;;4963983;28;20062;-85
2022/03/17 03:28:19;;;;;;;28.50;19.25;;;8.40;94.30;;;;;;4985975;28;20042;-87
2022/03/17 03:30:45;;;;;;;31.02;18.63;;;8.40;94.30;;;;;;4976126;28;20488;-87
2022/03/17 03:33:10;;;;;;;27.60;18.38;;;8.40;94.30;;;;;;4970805;28;20074;-86
2022/03/17 03:38:22;;;;;;;27.35;18.20;;;8.30;94.30;;;;;;4986090;28;20053;-86
2022/03/17 03:40:47;;;;;;;30.15;19.98;;;8.30;94.40;;;;;;4967525;28;20022;-86
2022/03/17 03:43:14;;;;;;;30.63;20.08;;;8.20;94.40;;;;;;4985765;28;20514;-87
2022/03/17 03:45:39;;;;;;;31.17;19.83;;;8.30;94.40;;;;;;4972114;28;20041;-86
2022/03/17 03:48:05;;;;;;;30.42;20.10;;;8.30;94.50;;;;;;4971205;28;20031;-87
2022/03/17 03:50:31;;;;;;;30.02;19.00;;;8.20;94.50;;;;;;4985598;28;20034;-86
2022/03/17 03:52:57;;;;;;;29.13;19.15;;;8.30;94.60;;;;;;4969069;28;20082;-86
2022/03/17 03:55:23;;;;;;;31.15;19.83;;;8.20;94.50;;;;;;4985618;28;20034;-87
2022/03/17 03:57:48;;;;;;;30.13;19.38;;;8.20;94.60;;;;;;4983631;28;20046;-86
2022/03/17 04:00:22;;;;;;;30.92;19.88;;;8.20;94.60;;;;;;4999816;28;20041;-86
2022/03/17 04:02:48;;;;;;;29.98;19.23;;;8.20;94.70;;;;;;4994639;28;20022;-86
2022/03/17 04:05:13;;;;;;;28.45;18.83;;;8.30;94.70;;;;;;4995128;28;20054;-85
2022/03/17 04:07:39;;;;;;;32.70;20.73;;;8.30;94.70;;;;;;4984026;28;20010;-86
2022/03/17 04:10:05;;;;;;;30.88;20.42;;;8.20;94.70;;;;;;4971150;28;20504;-87
2022/03/17 04:12:30;;;;;;;33.17;20.50;;;8.30;94.70;;;;;;4969440;28;20114;-87
2022/03/17 04:14:56;;;;;;;30.58;20.33;;;8.30;94.70;;;;;;4971898;28;20030;-87
2022/03/17 04:17:23;;;;;;;31.63;20.83;;;8.30;94.70;;;;;;4968083;28;20661;-87
2022/03/17 04:19:49;;;;;;;29.10;18.73;;;8.20;94.70;;;;;;4966565;28;20034;-87
2022/03/17 04:22:14;;;;;;;31.70;19.65;;;8.20;94.70;;;;;;4968786;28;20018;-87
2022/03/17 04:24:40;;;;;;;33.80;20.08;;;8.20;94.70;;;;;;4967410;28;20049;-87
2022/03/17 04:27:06;;;;;;;30.90;20.40;;;8.20;94.70;;;;;;4974460;28;20042;-86
2022/03/17 04:29:32;;;;;;;31.08;20.30;;;8.20;94.80;;;;;;4984825;28;20033;-86
2022/03/17 04:31:58;;;;;;;30.52;20.83;;;8.20;94.80;;;;;;4979171;28;20062;-86
2022/03/17 04:34:24;;;;;;;32.08;20.73;;;8.10;94.80;;;;;;4984441;28;20023;-86
2022/03/17 04:36:50;;;;;;;31.33;20.27;;;8.20;94.90;;;;;;4967867;28;20090;-86
2022/03/17 04:39:16;;;;;;;31.63;20.52;;;8.10;94.80;;;;;;4967686;28;20118;-86
2022/03/17 04:41:42;;;;;;;31.48;20.00;;;8.20;94.90;;;;;;4959712;28;20512;-87
2022/03/17 04:44:08;;;;;;;33.38;20.85;;;8.10;95.00;;;;;;4966245;28;20462;-86
2022/03/17 04:46:34;;;;;;;32.05;20.15;;;8.20;95.00;;;;;;4968835;28;20037;-86
2022/03/17 04:49:00;;;;;;;32.97;21.30;;;8.10;95.00;;;;;;4978341;28;20102;-85
2022/03/17 04:51:26;;;;;;;33.17;21.33;;;8.10;95.00;;;;;;4970490;28;20023;-86
2022/03/17 04:53:51;;;;;;;34.30;21.77;;;8.10;95.10;;;;;;4968977;28;20033;-86
2022/03/17 04:56:17;;;;;;;31.25;20.95;;;8.10;95.00;;;;;;4971300;28;20038;-86
2022/03/17 04:58:44;;;;;;;32.42;21.63;;;8.10;95.10;;;;;;4972985;28;20094;-86
2022/03/17 05:01:12;;;;;;;33.15;21.33;;;8.10;95.10;;;;;;4968501;28;20049;-87
2022/03/17 05:03:38;;;;;;;33.63;22.05;;;8.10;95.20;;;;;;4985397;28;20023;-86
2022/03/17 05:06:04;;;;;;;36.08;22.05;;;8.10;95.30;;;;;;4967103;28;20030;-86
2022/03/17 05:08:34;;;;;;;34.58;21.77;;;8.10;95.30;;;;;;4985770;28;20078;-86
2022/03/17 05:11:00;;;;;;;34.72;22.10;;;8.20;95.30;;;;;;4982734;28;20105;-85
2022/03/17 05:13:26;;;;;;;35.20;21.40;;;8.20;95.30;;;;;;4984934;28;20015;-86
2022/03/17 05:15:52;;;;;;;35.47;21.02;;;8.20;95.30;;;;;;4969963;28;20615;-86
2022/03/17 05:18:19;;;;;;;35.30;22.23;;;8.10;95.30;;;;;;4970346;28;20030;-86
2022/03/17 05:20:45;;;;;;;35.80;21.50;;;8.10;95.30;;;;;;4987601;28;20037;-86
2022/03/17 05:23:16;;;;;;;35.00;22.60;;;8.10;95.30;;;;;;4974416;28;20026;-86
2022/03/17 05:25:47;;;;;;;34.78;22.52;;;8.10;95.40;;;;;;4976683;28;20030;-86
2022/03/17 05:28:13;;;;;;;36.60;21.50;;;8.10;95.50;;;;;;4971591;28;20386;-86
2022/03/17 05:30:41;;;;;;;35.03;22.88;;;8.10;95.50;;;;;;4971433;28;20027;-85
2022/03/17 05:33:07;;;;;;;32.63;21.58;;;8.20;95.60;;;;;;4987662;28;20405;-86
2022/03/17 05:35:33;;;;;;;34.47;22.20;;;8.20;95.60;;;;;;4974391;28;20054;-86
2022/03/17 05:38:00;;;;;;;34.65;21.77;;;8.10;95.50;;;;;;4989023;28;20033;-86
2022/03/17 05:40:27;;;;;;;35.03;21.85;;;8.20;95.50;;;;;;4979679;28;20029;-86
2022/03/17 05:43:24;;;;;;;36.08;21.67;;;8.20;95.50;;;;;;4976777;28;20022;-86
2022/03/17 05:45:55;;;;;;;35.97;21.67;;;8.10;95.40;;;;;;4966857;28;20034;-87
2022/03/17 05:48:21;;;;;;;32.97;21.65;;;8.20;95.50;;;;;;4976615;28;20094;-87
2022/03/17 05:50:47;;;;;;;36.63;21.25;;;8.20;95.70;;;;;;4966910;28;20089;-87
2022/03/17 05:53:12;;;;;;;37.33;22.90;;;8.10;95.50;;;;;;4974763;28;20045;-87
2022/03/17 05:55:44;;;;;;;35.75;22.65;;;8.10;95.50;;;;;;4974644;28;20038;-87
2022/03/17 05:58:10;;;;;;;34.28;21.88;;;8.10;95.60;;;;;;4970444;28;20026;-86
2022/03/17 06:00:35;;;;;;;34.78;21.92;;;8.10;95.60;;;;;;4972549;28;20125;-88
2022/03/17 06:03:04;;;;;;;36.72;22.60;;;8.10;95.60;;;;;;4976288;28;20061;-87
2022/03/17 06:05:30;;;;;;;35.45;22.15;;;8.10;95.60;;;;;;4975349;28;20074;-87
2022/03/17 06:08:00;;;;;;;33.15;22.33;;;8.20;95.70;;;;;;4988510;28;20022;-85
2022/03/17 06:10:45;;;;;;;36.53;22.38;;;8.20;95.70;;;;;;4976600;28;20042;-88
2022/03/17 06:13:15;;;;;;;38.78;22.83;;;8.20;95.60;;;;;;4973884;28;20035;-88
2022/03/17 06:15:42;;;;;;;40.35;23.17;;;8.10;95.60;;;;;;4977180;28;20078;-86
2022/03/17 06:18:11;;;;;;;38.85;22.45;;;8.10;95.60;;;;;;4978977;28;20042;-88
2022/03/17 06:20:37;;;;;;;39.35;23.42;;;8.20;95.70;;;;;;4973881;28;20437;-87
2022/03/17 06:23:07;;;;;;;41.90;23.75;;;8.20;95.90;;;;;;4959747;28;20023;-88
2022/03/17 06:25:35;;;;;;;37.15;22.42;;;8.20;95.80;;;;;;4969094;28;20137;-88
2022/03/17 06:28:02;;;;;;;35.58;22.13;;;8.20;95.80;;;;;;4982508;28;20079;-87
2022/03/17 06:30:35;;;;;;;39.35;24.00;;;8.10;95.70;;;;;;4974431;28;20061;-87
2022/03/17 06:33:01;;;;;;;36.17;22.92;;;8.20;95.80;;;;;;4949136;28;20035;-88
2022/03/17 06:35:29;;;;;;;38.17;23.13;;;8.20;95.90;;;;;;4949879;29;20071;-88
2022/03/17 06:37:58;;;;;;;39.85;22.85;;;8.20;95.90;;;;;;4976492;28;20039;-88
2022/03/17 06:40:26;;;;;;;42.08;24.70;;;8.30;95.90;;;;;;4980520;28;20026;-87
2022/03/17 06:43:21;;;;;;;39.35;23.90;;;8.30;95.90;;;;;;4972189;28;20046;-88
2022/03/17 06:45:56;;;;;;;37.58;23.55;;;8.30;95.90;;;;;;4984735;28;20542;-88
2022/03/17 06:48:25;;;;;;;36.42;22.65;;;8.40;95.90;;;;;;4982631;28;20024;-86
2022/03/17 06:59:01;;;;;;;37.78;23.52;;;8.40;95.80;;;;;;4974509;28;20117;-88
2022/03/17 07:02:02;;;;;;;;;;;;;;;;;;;;;
2022/03/17 07:08:46;;;;;;;34.33;21.67;;;8.50;95.90;;;;;;4928255;29;20048;-88
2022/03/17 07:11:31;;;;;;;;;;;;;;;;;;;;;
2022/03/17 07:17:20;;;;;;;36.22;22.42;;;8.60;95.70;;;;;;4970540;28;20071;-87
2022/03/17 07:26:32;;;;;;;;;;;8.60;95.70;;;;;;4846742;29;20034;-87
2022/03/17 07:29:32;;;;;;;36.90;22.60;;;8.60;95.50;;;;;;4836133;29;19908;-90
2022/03/17 07:35:53;;;;;;;37.35;22.58;;;8.60;95.60;;;;;;4834709;29;20090;-89
2022/03/17 07:38:33;;;;;;;36.08;23.30;;;8.60;95.60;;;;;;4921908;29;20036;-89
2022/03/17 07:41:37;;;;;;;35.50;22.52;;;8.60;95.60;;;;;;4977181;28;20069;-88
2022/03/17 07:44:58;;;;;;;35.08;22.35;;;8.60;95.60;;;;;;4975636;28;20035;-89
2022/03/17 07:47:58;;;;;;;37.75;23.13;;;8.60;95.70;;;;;;5001467;28;20030;-88
2022/03/17 07:51:16;;;;;;;;;;;;;;;;;;;;;
2022/03/17 07:54:07;;;;;;;39.90;23.73;;;8.80;95.80;;;;;;4953960;28;20090;-89
2022/03/17 08:02:46;;;;;;;37.03;23.13;;;9.00;95.70;;;;;;4987942;28;20046;-87
2022/03/17 08:05:15;;;;;;;37.38;23.35;;;9.00;95.50;;;;;;5001821;28;20026;-86
2022/03/17 08:07:41;;;;;;;37.15;23.65;;;9.00;95.50;;;;;;5007632;28;20061;-86
2022/03/17 08:10:08;;;;;;;33.88;22.33;;;9.10;95.50;;;;;;4973107;28;20062;-85
2022/03/17 08:12:34;;;;;;;38.15;23.25;;;9.10;95.40;;;;;;4990721;28;20026;-85
2022/03/17 08:15:00;;;;;;;38.20;23.27;;;9.10;95.50;;;;;;4988103;28;20110;-86
2022/03/17 08:17:26;;;;;;;37.30;23.42;;;9.20;95.50;;;;;;4983540;28;20024;-87
2022/03/17 08:19:53;;;;;;;40.60;24.50;;;9.20;95.50;;;;;;4979139;28;20034;-87
2022/03/17 08:22:19;;;;;;;36.55;23.42;;;9.20;95.40;;;;;;4983957;28;20079;-84
2022/03/17 08:25:22;;;;;;;35.88;22.80;;;9.20;95.40;;;;;;5013436;28;20459;-86
2022/03/17 08:27:50;;;;;;;34.40;22.35;;;9.20;95.30;;;;;;5012030;28;20116;-86
2022/03/17 08:30:15;;;;;;;37.67;23.08;;;9.30;95.30;;;;;;5007355;28;20102;-87
2022/03/17 08:32:41;;;;;;;39.17;23.42;;;9.30;95.20;;;;;;5011187;28;20042;-86
2022/03/17 08:35:08;;;;;;;37.75;23.52;;;9.30;95.40;;;;;;5012920;28;20056;-85
2022/03/17 08:37:45;;;;;;;35.90;22.52;;;9.30;95.20;;;;;;5008032;28;20023;-85
2022/03/17 08:40:12;;;;;;;36.80;23.65;;;9.30;95.30;;;;;;4991012;28;20045;-86
2022/03/17 08:42:37;;;;;;;39.15;24.30;;;9.30;95.30;;;;;;4985736;28;20103;-85
2022/03/17 08:49:18;;;;;;;39.53;23.42;;;9.30;95.30;;;;;;4982645;28;20062;-86
2022/03/17 08:50:34;;;;;;;36.80;22.67;;;9.40;95.20;;;;;;4989560;28;20454;-86
2022/03/17 08:52:59;;;;;;;37.28;23.77;;;9.40;95.10;;;;;;4994073;28;20038;-86
2022/03/17 08:55:25;;;;;;;37.25;23.08;;;9.40;95.10;;;;;;4988581;28;20555;-87
2022/03/17 08:57:51;;;;;;;35.70;22.35;;;9.50;95.20;;;;;;4988815;28;20120;-87
2022/03/17 09:00:16;;;;;;;35.83;23.38;;;9.60;95.10;;;;;;4986581;28;20022;-86
2022/03/17 09:02:44;;;;;;;38.05;24.17;;;9.60;95.10;;;;;;4989467;28;20510;-86
2022/03/17 09:05:10;;;;;;;35.83;23.10;;;9.60;95.20;;;;;;4975629;28;20058;-86
2022/03/17 09:07:36;;;;;;;35.40;22.60;;;9.70;95.10;;;;;;4978859;28;20114;-84
2022/03/17 09:10:05;;;;;;;36.92;23.33;;;9.80;95.10;;;;;;4989344;28;20129;-84
2022/03/17 09:12:33;;;;;;;31.35;21.75;;;9.90;95.10;;;;;;4985261;28;20036;-86
2022/03/17 09:14:59;;;;;;;37.70;23.52;;;10.00;94.90;;;;;;4985644;28;20785;-84
2022/03/17 09:17:25;;;;;;;37.75;22.98;;;10.00;94.80;;;;;;4990823;28;20077;-84
2022/03/17 09:19:51;;;;;;;35.05;23.08;;;10.00;94.80;;;;;;4984813;28;20026;-84
2022/03/17 09:22:16;;;;;;;37.95;23.20;;;10.00;94.80;;;;;;4988721;28;20082;-84
2022/03/17 09:24:43;;;;;;;36.53;21.83;;;10.10;94.70;;;;;;4988145;28;20085;-85
2022/03/17 09:27:09;;;;;;;38.17;22.38;;;10.10;94.80;;;;;;4986913;28;20165;-84
2022/03/17 09:29:38;;;;;;;34.72;22.70;;;10.10;94.70;;;;;;4973366;28;20511;-84
2022/03/17 09:32:04;;;;;;;35.47;22.52;;;10.20;94.70;;;;;;4983274;28;20452;-84
2022/03/17 09:34:32;;;;;;;37.85;23.58;;;10.20;94.60;;;;;;4982224;28;20034;-84
2022/03/17 09:36:58;;;;;;;36.95;22.88;;;10.20;94.60;;;;;;4981640;28;20029;-84
2022/03/17 09:42:08;;;;;;;36.05;23.50;;;10.40;94.50;;;;;;4981142;28;20104;-85
2022/03/17 09:44:34;;;;;;;35.33;23.33;;;10.40;94.30;;;;;;4995545;28;20058;-85
2022/03/17 09:47:02;;;;;;;37.40;23.45;;;10.40;94.20;;;;;;4989553;28;20034;-84
2022/03/17 09:49:29;;;;;;;33.10;22.45;;;10.40;94.20;;;;;;4982178;28;20389;-85
2022/03/17 09:51:57;;;;;;;35.40;22.65;;;10.50;94.20;;;;;;4989857;28;20022;-84
2022/03/17 09:54:22;;;;;;;35.42;22.83;;;10.50;94.20;;;;;;4988255;28;20632;-84
2022/03/17 09:56:48;;;;;;;38.10;22.65;;;10.50;94.10;;;;;;4981824;28;20082;-85
2022/03/17 09:59:14;;;;;;;34.60;22.58;;;10.60;94.10;;;;;;4976752;28;20030;-84
2022/03/17 10:01:41;;;;;;;34.22;21.88;;;10.60;94.00;;;;;;4987827;28;20036;-84
2022/03/17 10:04:07;;;;;;;35.25;22.58;;;10.60;94.10;;;;;;4991943;28;20026;-83
2022/03/17 10:06:34;;;;;;;34.75;23.77;;;10.70;94.00;;;;;;4985321;28;20030;-84
2022/03/17 10:09:00;;;;;;;37.67;23.60;;;10.70;94.00;;;;;;4986336;28;20502;-85
2022/03/17 10:11:28;;;;;;;36.20;22.58;;;10.80;94.00;;;;;;4994017;28;20030;-85
2022/03/17 10:13:56;;;;;;;33.42;22.15;;;10.80;93.90;;;;;;5010471;28;20041;-84
2022/03/17 10:16:22;;;;;;;38.00;22.75;;;10.90;93.80;;;;;;4985340;28;20053;-84
2022/03/17 10:19:08;;;;;;;33.40;22.40;;;11.00;93.90;;;;;;4984825;28;20046;-84
2022/03/17 10:21:34;;;;;;;33.92;22.58;;;11.20;93.90;;;;;;4989520;28;20014;-83
2022/03/17 10:24:02;;;;;;;36.58;21.55;;;11.30;93.70;;;;;;4985782;28;20129;-84
2022/03/17 10:26:40;;;;;;;35.90;23.00;;;11.30;93.40;;;;;;4981463;28;20165;-84
2022/03/17 10:29:23;;;;;;;34.85;21.55;;;11.30;93.30;;;;;;4989862;28;20026;-85
2022/03/17 10:31:51;;;;;;;35.20;22.15;;;11.40;93.30;;;;;;4989930;28;20130;-85
2022/03/17 10:34:22;;;;;;;34.50;23.55;;;11.40;93.20;;;;;;4990241;28;20031;-84
2022/03/17 10:36:48;;;;;;;34.35;22.55;;;11.50;93.30;;;;;;4977071;28;20019;-85
2022/03/17 10:39:14;;;;;;;36.90;22.63;;;11.60;93.20;;;;;;4984971;28;20117;-84
2022/03/17 10:41:42;;;;;;;33.67;22.13;;;11.70;93.00;;;;;;4983777;28;20018;-85
2022/03/17 10:44:12;;;;;;;36.03;23.77;;;11.70;92.80;;;;;;4992358;28;20569;-84
2022/03/17 10:46:52;;;;;;;35.35;22.92;;;11.70;92.70;;;;;;4974926;28;20033;-85
2022/03/17 10:49:18;;;;;;;32.20;22.02;;;11.80;92.60;;;;;;4980801;28;20038;-85
2022/03/17 10:51:44;;;;;;;33.15;22.27;;;11.80;92.70;;;;;;5004322;28;20022;-84
2022/03/17 10:54:19;;;;;;;34.53;22.38;;;11.90;92.60;;;;;;5007638;28;20051;-84
2022/03/17 10:57:09;;;;;;;37.47;21.83;;;11.90;92.40;;;;;;5000413;28;20053;-83
2022/03/17 10:59:44;;;;;;;32.17;21.27;;;11.80;92.30;;;;;;4987406;28;20118;-85
2022/03/17 11:02:12;;;;;;;39.03;24.73;;;11.80;92.50;;;;;;4992155;28;20033;-84
2022/03/17 11:04:39;;;;;;;33.53;22.88;;;11.80;92.60;;;;;;4987484;28;20122;-85
2022/03/17 11:07:13;;;;;;;34.10;22.95;;;11.90;92.70;;;;;;4970345;28;20026;-86
2022/03/17 11:09:39;;;;;;;33.35;22.25;;;11.90;92.60;;;;;;4985854;28;20042;-85
2022/03/17 11:12:10;;;;;;;36.30;22.88;;;11.90;92.40;;;;;;4989500;28;20023;-85
2022/03/17 11:14:47;;;;;;;33.17;22.50;;;12.00;92.50;;;;;;4986634;28;20034;-84
2022/03/17 11:17:17;;;;;;;34.65;22.63;;;12.00;92.60;;;;;;4983025;28;20030;-85
2022/03/17 11:19:44;;;;;;;33.33;22.08;;;12.10;92.50;;;;;;4982513;28;20456;-85
2022/03/17 11:22:14;;;;;;;38.15;21.50;;;12.10;92.40;;;;;;4985558;28;20367;-85
2022/03/17 11:24:40;;;;;;;36.08;22.00;;;12.10;92.40;;;;;;5000591;28;20441;-85
2022/03/17 11:27:16;;;;;;;35.95;23.58;;;12.20;92.30;;;;;;4979866;28;20038;-89
2022/03/17 11:29:47;;;;;;;34.72;21.40;;;12.20;92.20;;;;;;4997621;28;20050;-90
2022/03/17 11:32:29;;;;;;;32.95;21.73;;;12.20;91.90;;;;;;5087420;28;20439;-90
2022/03/17 11:35:15;;;;;;;31.05;21.27;;;12.20;92.00;;;;;;5083541;28;20103;-88
2022/03/17 11:37:41;;;;;;;35.70;22.13;;;12.30;91.90;;;;;;5075984;28;20021;-89
2022/03/17 11:40:13;;;;;;;33.67;22.25;;;12.30;91.90;;;;;;5084168;28;20058;-89
2022/03/17 11:42:40;;;;;;;;;;;12.40;92.00;;;;;;5073888;28;20387;-88
2022/03/17 11:45:15;;;;;;;33.72;20.98;;;12.40;91.90;;;;;;5066616;28;20328;-89
2022/03/17 11:47:55;;;;;;;32.33;22.00;;;12.40;91.80;;;;;;5058186;28;20043;-89
2022/03/17 11:50:27;;;;;;;32.70;21.02;;;12.40;91.80;;;;;;5068859;28;20040;-89
2022/03/17 11:52:59;;;;;;;31.83;21.93;;;12.50;91.70;;;;;;5070259;28;20027;-89
2022/03/17 11:55:36;;;;;;;33.00;20.85;;;12.50;91.50;;;;;;5070492;28;20054;-89
2022/03/17 11:58:24;;;;;;;32.97;22.23;;;12.40;91.50;;;;;;5076132;28;20038;-89
2022/03/17 12:00:52;;;;;;;33.85;22.40;;;12.50;91.60;;;;;;5066630;28;20034;-88
2022/03/17 12:03:29;;;;;;;33.78;21.00;;;12.50;91.40;;;;;;5069853;28;20039;-89
2022/03/17 12:06:04;;;;;;;30.52;21.00;;;12.50;91.30;;;;;;5067779;28;20031;-88
2022/03/17 12:08:44;;;;;;;34.30;22.17;;;12.40;91.30;;;;;;5091002;28;20070;-90
2022/03/17 12:11:13;;;;;;;36.03;21.55;;;12.40;91.40;;;;;;5064820;28;20385;-90
2022/03/17 12:13:39;;;;;;;33.40;22.50;;;12.40;91.30;;;;;;5073353;28;20175;-90
2022/03/17 12:16:06;;;;;;;37.95;23.15;;;12.40;91.40;;;;;;5064571;28;20021;-90
2022/03/17 12:19:00;;;;;;;39.92;23.00;;;12.40;91.40;;;;;;5086537;28;20035;-89
2022/03/17 12:21:57;;;;;;;32.08;21.63;;;12.40;91.40;;;;;;5075440;28;20036;-90
2022/03/17 12:25:03;;;;;;;35.15;21.98;;;12.40;91.20;;;;;;5061854;28;20451;-89
2022/03/17 12:27:35;;;;;;;35.13;22.30;;;12.40;91.30;;;;;;5066998;28;20576;-90
2022/03/17 12:30:07;;;;;;;41.40;22.88;;;12.40;91.40;;;;;;5066101;28;20067;-91
2022/03/17 12:32:37;;;;;;;35.10;22.00;;;12.40;91.40;;;;;;5063633;28;20584;-90
2022/03/17 12:35:04;;;;;;;33.75;21.67;;;12.50;91.30;;;;;;5060887;28;20039;-89
2022/03/17 12:37:33;;;;;;;33.42;21.88;;;12.40;91.30;;;;;;5059972;28;20021;-88
2022/03/17 12:40:02;;;;;;;32.30;21.48;;;12.50;91.30;;;;;;5062406;28;20028;-88
2022/03/17 12:42:36;;;;;;;34.85;22.65;;;12.50;91.40;;;;;;5056465;28;20032;-88
2022/03/17 12:45:07;;;;;;;35.75;22.90;;;12.50;91.40;;;;;;5035333;28;20518;-88
2022/03/17 12:47:35;;;;;;;38.47;23.73;;;12.40;91.40;;;;;;5069144;28;20027;-88
2022/03/17 12:50:06;;;;;;;33.03;22.05;;;12.40;91.20;;;;;;5058756;28;20029;-87
2022/03/17 12:52:32;;;;;;;34.92;22.92;;;12.40;91.30;;;;;;5043504;28;20021;-87
2022/03/17 12:55:03;;;;;;;39.47;26.02;;;12.40;91.40;;;;;;5052418;28;20037;-87
2022/03/17 12:57:32;;;;;;;36.55;23.73;;;12.40;91.40;;;;;;5053746;28;20078;-87
2022/03/17 12:59:58;;;;;;;39.78;25.25;;;12.40;91.40;;;;;;5060740;28;20028;-87
2022/03/17 13:02:25;;;;;;;37.92;23.10;;;12.40;91.40;;;;;;5042904;28;20078;-87
2022/03/17 13:04:53;;;;;;;37.38;25.05;;;12.40;91.40;;;;;;5051446;28;20488;-86
2022/03/17 13:07:21;;;;;;;38.08;24.33;;;12.40;91.30;;;;;;5062776;28;20031;-89
2022/03/17 13:09:48;;;;;;;38.75;23.27;;;12.40;91.30;;;;;;5058056;28;20028;-88
2022/03/17 13:15:06;;;;;;;37.00;23.65;;;12.50;91.40;;;;;;5061886;28;20031;-88
2022/03/17 13:17:36;;;;;;;40.67;24.30;;;12.50;91.30;;;;;;5054392;28;20004;-89
2022/03/17 13:20:11;;;;;;;50.33;28.73;;;12.50;91.30;;;;;;5076595;28;20029;-88
2022/03/17 13:22:40;;;;;;;40.22;24.02;;;12.50;91.20;;;;;;5078855;28;20017;-90
2022/03/17 13:25:11;;;;;;;38.03;23.92;;;12.50;91.20;;;;;;5060800;28;20151;-88
2022/03/17 13:27:40;;;;;;;37.65;23.48;;;12.50;91.30;;;;;;5056387;28;20021;-87
2022/03/17 13:30:07;;;;;;;43.63;24.35;;;12.50;91.30;;;;;;5041586;28;20110;-87
2022/03/17 13:32:32;;;;;;;36.80;24.10;;;12.50;91.30;;;;;;5049769;28;20024;-88
2022/03/17 13:35:00;;;;;;;36.70;22.98;;;12.50;91.20;;;;;;5059509;28;20208;-88
2022/03/17 13:37:37;;;;;;;38.25;24.25;;;12.50;91.30;;;;;;5036858;28;20489;-88